sensor_id;sensor_type;location;lat;lon;timestamp;pressure;altitude;pressure_sealevel;temperature
40624;BMP280;26325;48.594;11.650;2023-07-31T00:01:27;96748.72;;;14.35
40624;BMP280;26325;48.594;11.650;2023-07-31T00:03:53;96737.03;;;14.28
40624;BMP280;26325;48.594;11.650;2023-07-31T00:06:18;96740.91;;;14.25
40624;BMP280;26325;48.594;11.650;2023-07-31T00:08:44;96752.88;;;14.36
40624;BMP280;26325;48.594;11.650;2023-07-31T00:11:11;96742.47;;;14.41
40624;BMP280;26325;48.594;11.650;2023-07-31T00:13:37;96746.63;;;14.42
40624;BMP280;26325;48.594;11.650;2023-07-31T00:16:14;96738.84;;;14.42
40624;BMP280;26325;48.594;11.650;2023-07-31T00:18:39;96744.78;;;14.37
40624;BMP280;26325;48.594;11.650;2023-07-31T00:21:05;96745.34;;;14.34
40624;BMP280;26325;48.594;11.650;2023-07-31T00:23:30;96747.66;;;14.41
40624;BMP280;26325;48.594;11.650;2023-07-31T00:25:58;96749.75;;;14.39
40624;BMP280;26325;48.594;11.650;2023-07-31T00:28:24;96744.03;;;14.37
40624;BMP280;26325;48.594;11.650;2023-07-31T00:30:52;96742.47;;;14.31
40624;BMP280;26325;48.594;11.650;2023-07-31T00:33:18;96737.78;;;14.23
40624;BMP280;26325;48.594;11.650;2023-07-31T00:35:43;96748.66;;;14.01
40624;BMP280;26325;48.594;11.650;2023-07-31T00:38:09;96739.53;;;13.89
40624;BMP280;26325;48.594;11.650;2023-07-31T00:40:37;96735.31;;;13.78
40624;BMP280;26325;48.594;11.650;2023-07-31T00:43:03;96735.91;;;13.85
40624;BMP280;26325;48.594;11.650;2023-07-31T00:45:29;96729.88;;;13.74
40624;BMP280;26325;48.594;11.650;2023-07-31T00:47:56;96726.66;;;13.53
40624;BMP280;26325;48.594;11.650;2023-07-31T00:50:25;96736.81;;;13.54
40624;BMP280;26325;48.594;11.650;2023-07-31T00:52:50;96730.78;;;13.44
40624;BMP280;26325;48.594;11.650;2023-07-31T00:55:16;96727.19;;;13.50
40624;BMP280;26325;48.594;11.650;2023-07-31T00:57:42;96729.25;;;13.48
40624;BMP280;26325;48.594;11.650;2023-07-31T01:00:08;96732.88;;;13.52
40624;BMP280;26325;48.594;11.650;2023-07-31T01:02:35;96732.59;;;13.44
40624;BMP280;26325;48.594;11.650;2023-07-31T01:05:04;96727.91;;;13.36
40624;BMP280;26325;48.594;11.650;2023-07-31T01:07:56;96732.34;;;13.45
40624;BMP280;26325;48.594;11.650;2023-07-31T01:10:31;96724.06;;;13.48
40624;BMP280;26325;48.594;11.650;2023-07-31T01:12:59;96720.19;;;13.55
40624;BMP280;26325;48.594;11.650;2023-07-31T01:15:24;96720.19;;;13.60
40624;BMP280;26325;48.594;11.650;2023-07-31T01:17:50;96725.69;;;13.69
40624;BMP280;26325;48.594;11.650;2023-07-31T01:20:23;96719.94;;;13.62
40624;BMP280;26325;48.594;11.650;2023-07-31T01:26:12;96714.75;;;13.57
40624;BMP280;26325;48.594;11.650;2023-07-31T01:29:03;96716.84;;;13.70
40624;BMP280;26325;48.594;11.650;2023-07-31T01:31:32;96709.59;;;13.71
40624;BMP280;26325;48.594;11.650;2023-07-31T01:34:01;96709.06;;;13.70
40624;BMP280;26325;48.594;11.650;2023-07-31T01:36:28;96711.13;;;13.63
40624;BMP280;26325;48.594;11.650;2023-07-31T01:38:59;96703.91;;;13.74
40624;BMP280;26325;48.594;11.650;2023-07-31T01:41:27;96696.63;;;13.71
40624;BMP280;26325;48.594;11.650;2023-07-31T01:43:52;96704.94;;;13.78
40624;BMP280;26325;48.594;11.650;2023-07-31T01:46:18;96705.44;;;13.71
40624;BMP280;26325;48.594;11.650;2023-07-31T01:48:43;96701.28;;;13.70
40624;BMP280;26325;48.594;11.650;2023-07-31T01:51:09;96701.31;;;13.74
40624;BMP280;26325;48.594;11.650;2023-07-31T01:53:34;96695.34;;;13.74
40624;BMP280;26325;48.594;11.650;2023-07-31T01:56:00;96699.72;;;13.64
40624;BMP280;26325;48.594;11.650;2023-07-31T01:58:26;96704.09;;;13.53
40624;BMP280;26325;48.594;11.650;2023-07-31T02:00:51;96699.66;;;13.44
40624;BMP280;26325;48.594;11.650;2023-07-31T02:03:17;96689.81;;;13.51
40624;BMP280;26325;48.594;11.650;2023-07-31T02:05:46;96698.13;;;13.53
40624;BMP280;26325;48.594;11.650;2023-07-31T02:08:15;96692.41;;;13.46
40624;BMP280;26325;48.594;11.650;2023-07-31T02:10:41;96690.31;;;13.38
40624;BMP280;26325;48.594;11.650;2023-07-31T02:13:06;96683.50;;;13.28
40624;BMP280;26325;48.594;11.650;2023-07-31T02:15:32;96683.25;;;13.24
40624;BMP280;26325;48.594;11.650;2023-07-31T02:17:57;96676.72;;;13.17
40624;BMP280;26325;48.594;11.650;2023-07-31T02:20:25;96678.53;;;13.16
40624;BMP280;26325;48.594;11.650;2023-07-31T02:22:51;96679.34;;;13.22
40624;BMP280;26325;48.594;11.650;2023-07-31T02:25:16;96677.72;;;13.11
40624;BMP280;26325;48.594;11.650;2023-07-31T02:27:47;96680.38;;;13.21
40624;BMP280;26325;48.594;11.650;2023-07-31T02:30:12;96666.56;;;13.11
40624;BMP280;26325;48.594;11.650;2023-07-31T02:32:38;96667.34;;;13.11
40624;BMP280;26325;48.594;11.650;2023-07-31T02:35:04;96660.16;;;13.23
40624;BMP280;26325;48.594;11.650;2023-07-31T02:37:30;96653.41;;;13.27
40624;BMP280;26325;48.594;11.650;2023-07-31T02:39:56;96644.59;;;13.23
40624;BMP280;26325;48.594;11.650;2023-07-31T02:42:21;96659.09;;;13.19
40624;BMP280;26325;48.594;11.650;2023-07-31T02:44:47;96656.97;;;13.06
40624;BMP280;26325;48.594;11.650;2023-07-31T02:47:12;96655.31;;;12.91
40624;BMP280;26325;48.594;11.650;2023-07-31T02:49:40;96648.63;;;12.99
40624;BMP280;26325;48.594;11.650;2023-07-31T02:52:06;96660.84;;;13.04
40624;BMP280;26325;48.594;11.650;2023-07-31T02:54:32;96651.38;;;12.78
40624;BMP280;26325;48.594;11.650;2023-07-31T02:56:58;96664.66;;;12.87
40624;BMP280;26325;48.594;11.650;2023-07-31T02:59:23;96649.59;;;12.79
40624;BMP280;26325;48.594;11.650;2023-07-31T03:01:50;96652.97;;;12.79
40624;BMP280;26325;48.594;11.650;2023-07-31T03:04:16;96652.34;;;12.68
40624;BMP280;26325;48.594;11.650;2023-07-31T03:06:41;96649.22;;;12.66
40624;BMP280;26325;48.594;11.650;2023-07-31T03:09:07;96639.66;;;12.66
40624;BMP280;26325;48.594;11.650;2023-07-31T03:11:35;96646.94;;;12.69
40624;BMP280;26325;48.594;11.650;2023-07-31T03:14:02;96643.22;;;12.60
40624;BMP280;26325;48.594;11.650;2023-07-31T03:16:32;96636.69;;;12.53
40624;BMP280;26325;48.594;11.650;2023-07-31T03:18:57;96645.59;;;12.67
40624;BMP280;26325;48.594;11.650;2023-07-31T03:21:23;96647.72;;;12.70
40624;BMP280;26325;48.594;11.650;2023-07-31T03:23:48;96646.84;;;12.59
40624;BMP280;26325;48.594;11.650;2023-07-31T03:26:16;96648.34;;;12.51
40624;BMP280;26325;48.594;11.650;2023-07-31T03:28:42;96639.25;;;12.48
40624;BMP280;26325;48.594;11.650;2023-07-31T03:31:12;96635.06;;;12.42
40624;BMP280;26325;48.594;11.650;2023-07-31T03:33:42;96642.16;;;12.56
40624;BMP280;26325;48.594;11.650;2023-07-31T03:36:07;96646.94;;;12.69
40624;BMP280;26325;48.594;11.650;2023-07-31T03:38:34;96653.03;;;12.54
40624;BMP280;26325;48.594;11.650;2023-07-31T03:41:00;96648.03;;;12.42
40624;BMP280;26325;48.594;11.650;2023-07-31T03:43:25;96651.84;;;12.35
40624;BMP280;26325;48.594;11.650;2023-07-31T03:45:51;96655.69;;;12.28
40624;BMP280;26325;48.594;11.650;2023-07-31T03:48:16;96656.47;;;12.28
40624;BMP280;26325;48.594;11.650;2023-07-31T03:50:42;96653.88;;;12.28
40624;BMP280;26325;48.594;11.650;2023-07-31T03:53:08;96653.97;;;12.38
40624;BMP280;26325;48.594;11.650;2023-07-31T03:55:33;96652.66;;;12.40
40624;BMP280;26325;48.594;11.650;2023-07-31T03:57:59;96646.69;;;12.40
40624;BMP280;26325;48.594;11.650;2023-07-31T04:00:26;96655.53;;;12.44
40624;BMP280;26325;48.594;11.650;2023-07-31T04:02:52;96645.13;;;12.39
40624;BMP280;26325;48.594;11.650;2023-07-31T04:05:18;96648.56;;;12.44
40624;BMP280;26325;48.594;11.650;2023-07-31T04:07:45;96644.78;;;12.61
40624;BMP280;26325;48.594;11.650;2023-07-31T04:10:11;96655.00;;;12.73
40624;BMP280;26325;48.594;11.650;2023-07-31T04:12:36;96650.00;;;12.66
40624;BMP280;26325;48.594;11.650;2023-07-31T04:15:02;96649.53;;;12.74
40624;BMP280;26325;48.594;11.650;2023-07-31T04:17:30;96651.03;;;12.65
40624;BMP280;26325;48.594;11.650;2023-07-31T04:19:56;96650.06;;;12.71
40624;BMP280;26325;48.594;11.650;2023-07-31T04:22:21;96636.97;;;12.56
40624;BMP280;26325;48.594;11.650;2023-07-31T04:24:47;96642.66;;;12.54
40624;BMP280;26325;48.594;11.650;2023-07-31T04:27:12;96643.31;;;12.70
40624;BMP280;26325;48.594;11.650;2023-07-31T04:29:38;96636.09;;;12.82
40624;BMP280;26325;48.594;11.650;2023-07-31T04:32:05;96645.25;;;12.94
40624;BMP280;26325;48.594;11.650;2023-07-31T04:34:34;96643.50;;;13.09
40624;BMP280;26325;48.594;11.650;2023-07-31T04:36:59;96646.38;;;13.13
40624;BMP280;26325;48.594;11.650;2023-07-31T04:39:25;96640.41;;;13.12
40624;BMP280;26325;48.594;11.650;2023-07-31T04:41:50;96640.91;;;13.09
40624;BMP280;26325;48.594;11.650;2023-07-31T04:44:27;96641.19;;;13.17
40624;BMP280;26325;48.594;11.650;2023-07-31T04:47:02;96640.97;;;13.29
40624;BMP280;26325;48.594;11.650;2023-07-31T04:49:28;96636.31;;;13.31
40624;BMP280;26325;48.594;11.650;2023-07-31T04:51:53;96631.13;;;13.35
40624;BMP280;26325;48.594;11.650;2023-07-31T04:54:19;96619.25;;;13.49
40624;BMP280;26325;48.594;11.650;2023-07-31T04:56:47;96623.44;;;13.70
40624;BMP280;26325;48.594;11.650;2023-07-31T04:59:15;96627.34;;;13.82
40624;BMP280;26325;48.594;11.650;2023-07-31T05:01:40;96614.66;;;13.85
40624;BMP280;26325;48.594;11.650;2023-07-31T05:04:13;96610.00;;;13.92
40624;BMP280;26325;48.594;11.650;2023-07-31T05:06:48;96618.84;;;14.01
40624;BMP280;26325;48.594;11.650;2023-07-31T05:09:14;96604.81;;;14.16
40624;BMP280;26325;48.594;11.650;2023-07-31T05:11:39;96607.63;;;14.29
40624;BMP280;26325;48.594;11.650;2023-07-31T05:14:08;96618.28;;;14.48
40624;BMP280;26325;48.594;11.650;2023-07-31T05:16:33;96620.84;;;14.67
40624;BMP280;26325;48.594;11.650;2023-07-31T05:18:59;96629.09;;;14.98
40624;BMP280;26325;48.594;11.650;2023-07-31T05:21:24;96635.97;;;15.32
40624;BMP280;26325;48.594;11.650;2023-07-31T05:23:50;96628.97;;;15.75
40624;BMP280;26325;48.594;11.650;2023-07-31T05:26:16;96626.19;;;16.04
40624;BMP280;26325;48.594;11.650;2023-07-31T05:28:43;96627.69;;;16.15
40624;BMP280;26325;48.594;11.650;2023-07-31T05:31:11;96625.19;;;16.33
40624;BMP280;26325;48.594;11.650;2023-07-31T05:33:37;96622.97;;;16.44
40624;BMP280;26325;48.594;11.650;2023-07-31T05:36:04;96612.69;;;16.58
40624;BMP280;26325;48.594;11.650;2023-07-31T05:38:30;96627.97;;;16.69
40624;BMP280;26325;48.594;11.650;2023-07-31T05:40:55;96623.88;;;16.86
40624;BMP280;26325;48.594;11.650;2023-07-31T05:43:21;96628.44;;;16.98
40624;BMP280;26325;48.594;11.650;2023-07-31T05:45:47;96628.50;;;17.16
40624;BMP280;26325;48.594;11.650;2023-07-31T05:48:12;96630.94;;;17.31
40624;BMP280;26325;48.594;11.650;2023-07-31T05:50:40;96632.50;;;17.50
40624;BMP280;26325;48.594;11.650;2023-07-31T05:53:06;96625.88;;;17.57
40624;BMP280;26325;48.594;11.650;2023-07-31T05:55:34;96628.13;;;17.82
40624;BMP280;26325;48.594;11.650;2023-07-31T05:57:59;96635.56;;;18.11
40624;BMP280;26325;48.594;11.650;2023-07-31T06:00:25;96626.22;;;18.54
40624;BMP280;26325;48.594;11.650;2023-07-31T06:02:50;96628.16;;;18.80
40624;BMP280;26325;48.594;11.650;2023-07-31T06:05:16;96635.72;;;18.95
40624;BMP280;26325;48.594;11.650;2023-07-31T06:07:44;96627.88;;;19.21
40624;BMP280;26325;48.594;11.650;2023-07-31T06:10:09;96635.91;;;19.64
40624;BMP280;26325;48.594;11.650;2023-07-31T06:12:35;96627.34;;;19.72
40624;BMP280;26325;48.594;11.650;2023-07-31T06:15:03;96625.22;;;19.74
40624;BMP280;26325;48.594;11.650;2023-07-31T06:17:29;96615.38;;;19.79
40624;BMP280;26325;48.594;11.650;2023-07-31T06:19:56;96620.25;;;19.72
40624;BMP280;26325;48.594;11.650;2023-07-31T06:22:22;96624.75;;;19.59
40624;BMP280;26325;48.594;11.650;2023-07-31T06:24:50;96621.53;;;19.75
40624;BMP280;26325;48.594;11.650;2023-07-31T06:27:16;96617.34;;;19.74
40624;BMP280;26325;48.594;11.650;2023-07-31T06:29:42;96631.72;;;19.63
40624;BMP280;26325;48.594;11.650;2023-07-31T06:32:10;96624.78;;;19.80
40624;BMP280;26325;48.594;11.650;2023-07-31T06:34:36;96618.69;;;19.71
40624;BMP280;26325;48.594;11.650;2023-07-31T06:37:04;96622.81;;;19.64
40624;BMP280;26325;48.594;11.650;2023-07-31T06:39:29;96616.19;;;19.53
40624;BMP280;26325;48.594;11.650;2023-07-31T06:41:55;96613.19;;;19.46
40624;BMP280;26325;48.594;11.650;2023-07-31T06:44:21;96616.72;;;19.42
40624;BMP280;26325;48.594;11.650;2023-07-31T06:46:46;96603.88;;;19.67
40624;BMP280;26325;48.594;11.650;2023-07-31T06:49:12;96616.28;;;19.62
40624;BMP280;26325;48.594;11.650;2023-07-31T06:51:37;96612.53;;;19.28
40624;BMP280;26325;48.594;11.650;2023-07-31T06:54:08;96597.56;;;19.68
40624;BMP280;26325;48.594;11.650;2023-07-31T06:56:34;96604.31;;;19.82
40624;BMP280;26325;48.594;11.650;2023-07-31T06:58:59;96597.25;;;19.83
40624;BMP280;26325;48.594;11.650;2023-07-31T07:01:25;96609.47;;;20.08
40624;BMP280;26325;48.594;11.650;2023-07-31T07:03:53;96602.25;;;20.35
40624;BMP280;26325;48.594;11.650;2023-07-31T07:06:18;96598.44;;;20.62
40624;BMP280;26325;48.594;11.650;2023-07-31T07:08:44;96600.91;;;20.97
40624;BMP280;26325;48.594;11.650;2023-07-31T07:11:09;96605.41;;;20.97
40624;BMP280;26325;48.594;11.650;2023-07-31T07:13:35;96601.88;;;21.09
40624;BMP280;26325;48.594;11.650;2023-07-31T07:16:01;96600.78;;;21.10
40624;BMP280;26325;48.594;11.650;2023-07-31T07:18:26;96600.16;;;20.97
40624;BMP280;26325;48.594;11.650;2023-07-31T07:20:53;96593.41;;;21.12
40624;BMP280;26325;48.594;11.650;2023-07-31T07:23:20;96598.00;;;20.99
40624;BMP280;26325;48.594;11.650;2023-07-31T07:25:48;96600.16;;;20.97
40624;BMP280;26325;48.594;11.650;2023-07-31T07:28:14;96611.31;;;21.10
40624;BMP280;26325;48.594;11.650;2023-07-31T07:30:40;96598.66;;;21.12
40624;BMP280;26325;48.594;11.650;2023-07-31T07:33:07;96598.22;;;21.18
40624;BMP280;26325;48.594;11.650;2023-07-31T07:35:34;96589.44;;;21.23
40624;BMP280;26325;48.594;11.650;2023-07-31T07:38:01;96586.34;;;21.21
40624;BMP280;26325;48.594;11.650;2023-07-31T07:40:27;96588.84;;;21.42
40624;BMP280;26325;48.594;11.650;2023-07-31T07:42:52;96580.13;;;21.96
40624;BMP280;26325;48.594;11.650;2023-07-31T07:45:18;96565.88;;;22.31
40624;BMP280;26325;48.594;11.650;2023-07-31T07:47:43;96568.47;;;22.47
40624;BMP280;26325;48.594;11.650;2023-07-31T07:50:11;96567.13;;;22.86
40624;BMP280;26325;48.594;11.650;2023-07-31T07:52:37;96567.75;;;23.96
40624;BMP280;26325;48.594;11.650;2023-07-31T07:55:03;96569.88;;;24.78
40624;BMP280;26325;48.594;11.650;2023-07-31T07:57:29;96572.22;;;24.47
40624;BMP280;26325;48.594;11.650;2023-07-31T07:59:57;96566.22;;;25.37
40624;BMP280;26325;48.594;11.650;2023-07-31T08:02:22;96571.84;;;25.86
40624;BMP280;26325;48.594;11.650;2023-07-31T08:04:48;96574.06;;;25.72
40624;BMP280;26325;48.594;11.650;2023-07-31T08:07:14;96570.38;;;26.80
40624;BMP280;26325;48.594;11.650;2023-07-31T08:09:40;96570.75;;;27.24
40624;BMP280;26325;48.594;11.650;2023-07-31T08:12:06;96566.38;;;27.32
40624;BMP280;26325;48.594;11.650;2023-07-31T08:14:32;96573.47;;;27.43
40624;BMP280;26325;48.594;11.650;2023-07-31T08:16:58;96569.72;;;27.14
40624;BMP280;26325;48.594;11.650;2023-07-31T08:19:23;96560.50;;;27.08
40624;BMP280;26325;48.594;11.650;2023-07-31T08:21:49;96564.94;;;27.34
40624;BMP280;26325;48.594;11.650;2023-07-31T08:24:14;96562.28;;;27.34
40624;BMP280;26325;48.594;11.650;2023-07-31T08:26:40;96571.63;;;26.56
40624;BMP280;26325;48.594;11.650;2023-07-31T08:29:08;96573.72;;;26.24
40624;BMP280;26325;48.594;11.650;2023-07-31T08:31:34;96571.38;;;25.34
40624;BMP280;26325;48.594;11.650;2023-07-31T08:34:00;96569.47;;;25.22
40624;BMP280;26325;48.594;11.650;2023-07-31T08:36:26;96576.13;;;25.28
40624;BMP280;26325;48.594;11.650;2023-07-31T08:38:54;96570.03;;;24.49
40624;BMP280;26325;48.594;11.650;2023-07-31T08:41:20;96556.38;;;24.47
40624;BMP280;26325;48.594;11.650;2023-07-31T08:43:46;96559.34;;;24.46
40624;BMP280;26325;48.594;11.650;2023-07-31T08:46:12;96559.44;;;24.38
40624;BMP280;26325;48.594;11.650;2023-07-31T08:48:42;96562.41;;;24.05
40624;BMP280;26325;48.594;11.650;2023-07-31T08:51:08;96558.97;;;24.36
40624;BMP280;26325;48.594;11.650;2023-07-31T08:53:34;96561.03;;;24.50
40624;BMP280;26325;48.594;11.650;2023-07-31T08:56:00;96563.09;;;24.77
40624;BMP280;26325;48.594;11.650;2023-07-31T08:58:31;96549.34;;;24.83
40624;BMP280;26325;48.594;11.650;2023-07-31T09:00:57;96559.44;;;24.81
40624;BMP280;26325;48.594;11.650;2023-07-31T09:03:25;96548.66;;;25.56
40624;BMP280;26325;48.594;11.650;2023-07-31T09:05:53;96554.75;;;25.33
40624;BMP280;26325;48.594;11.650;2023-07-31T09:08:21;96543.28;;;25.18
40624;BMP280;26325;48.594;11.650;2023-07-31T09:10:47;96548.88;;;24.81
40624;BMP280;26325;48.594;11.650;2023-07-31T09:13:15;96554.69;;;24.63
40624;BMP280;26325;48.594;11.650;2023-07-31T09:15:46;96556.88;;;24.61
40624;BMP280;26325;48.594;11.650;2023-07-31T09:18:12;96563.81;;;24.65
40624;BMP280;26325;48.594;11.650;2023-07-31T09:20:39;96551.97;;;24.40
40624;BMP280;26325;48.594;11.650;2023-07-31T09:23:13;96539.72;;;24.35
40624;BMP280;26325;48.594;11.650;2023-07-31T09:29:41;96540.72;;;24.63
40624;BMP280;26325;48.594;11.650;2023-07-31T09:32:16;96528.75;;;24.88
40624;BMP280;26325;48.594;11.650;2023-07-31T09:34:42;96537.31;;;25.21
40624;BMP280;26325;48.594;11.650;2023-07-31T09:37:08;96530.06;;;25.06
40624;BMP280;26325;48.594;11.650;2023-07-31T09:39:46;96530.19;;;25.33
40624;BMP280;26325;48.594;11.650;2023-07-31T09:42:11;96532.94;;;25.24
40624;BMP280;26325;48.594;11.650;2023-07-31T09:44:41;96523.13;;;25.13
40624;BMP280;26325;48.594;11.650;2023-07-31T09:47:10;96517.19;;;25.16
40624;BMP280;26325;48.594;11.650;2023-07-31T09:49:46;96512.84;;;25.70
40624;BMP280;26325;48.594;11.650;2023-07-31T09:52:12;96516.38;;;26.43
40624;BMP280;26325;48.594;11.650;2023-07-31T09:54:39;96513.06;;;26.46
40624;BMP280;26325;48.594;11.650;2023-07-31T09:57:04;96494.78;;;27.65
40624;BMP280;26325;48.594;11.650;2023-07-31T09:59:30;96489.22;;;28.26
40624;BMP280;26325;48.594;11.650;2023-07-31T10:01:56;96491.31;;;28.35
40624;BMP280;26325;48.594;11.650;2023-07-31T10:04:27;96499.47;;;29.11
40624;BMP280;26325;48.594;11.650;2023-07-31T10:06:53;96475.66;;;28.74
40624;BMP280;26325;48.594;11.650;2023-07-31T10:09:21;96478.75;;;29.24
40624;BMP280;26325;48.594;11.650;2023-07-31T10:12:00;96460.09;;;29.20
40624;BMP280;26325;48.594;11.650;2023-07-31T10:14:27;96471.69;;;28.21
40624;BMP280;26325;48.594;11.650;2023-07-31T10:16:54;96468.72;;;27.67
40624;BMP280;26325;48.594;11.650;2023-07-31T10:19:21;96457.56;;;27.43
40624;BMP280;26325;48.594;11.650;2023-07-31T10:21:48;96470.00;;;27.58
40624;BMP280;26325;48.594;11.650;2023-07-31T10:24:14;96471.06;;;28.09
40624;BMP280;26325;48.594;11.650;2023-07-31T10:26:45;96461.84;;;28.03
40624;BMP280;26325;48.594;11.650;2023-07-31T10:29:12;96482.81;;;27.90
40624;BMP280;26325;48.594;11.650;2023-07-31T10:31:38;96461.97;;;28.29
40624;BMP280;26325;48.594;11.650;2023-07-31T10:34:07;96461.22;;;28.94
40624;BMP280;26325;48.594;11.650;2023-07-31T10:36:36;96471.16;;;29.00
40624;BMP280;26325;48.594;11.650;2023-07-31T10:39:04;96474.50;;;28.72
40624;BMP280;26325;48.594;11.650;2023-07-31T10:41:32;96481.03;;;28.15
40624;BMP280;26325;48.594;11.650;2023-07-31T10:44:00;96481.13;;;28.00
40624;BMP280;26325;48.594;11.650;2023-07-31T10:46:28;96472.94;;;27.90
40624;BMP280;26325;48.594;11.650;2023-07-31T10:49:00;96462.28;;;27.68
40624;BMP280;26325;48.594;11.650;2023-07-31T10:51:33;96446.28;;;28.64
40624;BMP280;26325;48.594;11.650;2023-07-31T10:54:14;96442.84;;;29.07
40624;BMP280;26325;48.594;11.650;2023-07-31T10:56:44;96444.22;;;29.81
40624;BMP280;26325;48.594;11.650;2023-07-31T10:59:10;96439.84;;;29.38
40624;BMP280;26325;48.594;11.650;2023-07-31T11:01:56;96453.06;;;29.60
40624;BMP280;26325;48.594;11.650;2023-07-31T11:04:26;96446.44;;;28.74
40624;BMP280;26325;48.594;11.650;2023-07-31T11:07:00;96432.16;;;29.58
40624;BMP280;26325;48.594;11.650;2023-07-31T11:09:30;96432.31;;;30.04
40624;BMP280;26325;48.594;11.650;2023-07-31T11:11:57;96429.94;;;30.31
40624;BMP280;26325;48.594;11.650;2023-07-31T11:14:23;96437.50;;;29.07
40624;BMP280;26325;48.594;11.650;2023-07-31T11:16:52;96429.94;;;28.40
40624;BMP280;26325;48.594;11.650;2023-07-31T11:19:24;96442.19;;;27.67
40624;BMP280;26325;48.594;11.650;2023-07-31T11:21:53;96416.16;;;27.20
40624;BMP280;26325;48.594;11.650;2023-07-31T11:24:19;96421.56;;;28.38
40624;BMP280;26325;48.594;11.650;2023-07-31T11:26:52;96408.69;;;28.40
40624;BMP280;26325;48.594;11.650;2023-07-31T11:29:19;96404.28;;;28.95
40624;BMP280;26325;48.594;11.650;2023-07-31T11:31:47;96402.03;;;28.97
40624;BMP280;26325;48.594;11.650;2023-07-31T11:34:14;96394.53;;;28.55
40624;BMP280;26325;48.594;11.650;2023-07-31T11:36:40;96402.09;;;28.78
40624;BMP280;26325;48.594;11.650;2023-07-31T11:39:09;96389.53;;;28.75
40624;BMP280;26325;48.594;11.650;2023-07-31T11:41:35;96396.28;;;28.48
40624;BMP280;26325;48.594;11.650;2023-07-31T11:44:03;96379.06;;;27.76
40624;BMP280;26325;48.594;11.650;2023-07-31T11:46:32;96381.16;;;27.30
40624;BMP280;26325;48.594;11.650;2023-07-31T11:49:03;96377.31;;;27.83
40624;BMP280;26325;48.594;11.650;2023-07-31T11:51:30;96369.91;;;28.58
40624;BMP280;26325;48.594;11.650;2023-07-31T11:53:58;96347.78;;;29.30
40624;BMP280;26325;48.594;11.650;2023-07-31T11:56:26;96353.97;;;30.02
40624;BMP280;26325;48.594;11.650;2023-07-31T11:58:59;96362.91;;;30.65
40624;BMP280;26325;48.594;11.650;2023-07-31T12:01:28;96356.34;;;31.08
40624;BMP280;26325;48.594;11.650;2023-07-31T12:03:54;96347.78;;;30.79
40624;BMP280;26325;48.594;11.650;2023-07-31T12:06:20;96337.38;;;31.20
40624;BMP280;26325;48.594;11.650;2023-07-31T12:08:47;96348.38;;;32.05
40624;BMP280;26325;48.594;11.650;2023-07-31T12:11:12;96347.63;;;32.29
40624;BMP280;26325;48.594;11.650;2023-07-31T12:13:43;96347.28;;;31.23
40624;BMP280;26325;48.594;11.650;2023-07-31T12:16:08;96343.34;;;30.05
40624;BMP280;26325;48.594;11.650;2023-07-31T12:18:37;96334.22;;;29.09
40624;BMP280;26325;48.594;11.650;2023-07-31T12:21:08;96335.47;;;29.15
40624;BMP280;26325;48.594;11.650;2023-07-31T12:23:36;96331.56;;;29.09
40624;BMP280;26325;48.594;11.650;2023-07-31T12:28:40;96344.22;;;30.58
40624;BMP280;26325;48.594;11.650;2023-07-31T12:31:10;96340.50;;;28.95
40624;BMP280;26325;48.594;11.650;2023-07-31T12:33:38;96341.50;;;28.62
40624;BMP280;26325;48.594;11.650;2023-07-31T12:36:16;96334.06;;;28.45
40624;BMP280;26325;48.594;11.650;2023-07-31T12:38:42;96332.63;;;27.85
40624;BMP280;26325;48.594;11.650;2023-07-31T12:41:08;96329.00;;;28.37
40624;BMP280;26325;48.594;11.650;2023-07-31T12:43:35;96339.63;;;28.37
40624;BMP280;26325;48.594;11.650;2023-07-31T12:46:16;96334.31;;;28.37
40624;BMP280;26325;48.594;11.650;2023-07-31T12:48:42;96321.78;;;29.17
40624;BMP280;26325;48.594;11.650;2023-07-31T12:51:10;96319.44;;;29.73
40624;BMP280;26325;48.594;11.650;2023-07-31T12:53:36;96305.28;;;30.43
40624;BMP280;26325;48.594;11.650;2023-07-31T12:56:04;96301.25;;;30.21
40624;BMP280;26325;48.594;11.650;2023-07-31T12:58:30;96281.72;;;30.49
40624;BMP280;26325;48.594;11.650;2023-07-31T13:01:00;96284.38;;;30.03
40624;BMP280;26325;48.594;11.650;2023-07-31T13:03:27;96287.16;;;29.78
40624;BMP280;26325;48.594;11.650;2023-07-31T13:05:52;96278.53;;;30.89
40624;BMP280;26325;48.594;11.650;2023-07-31T13:08:18;96280.25;;;31.28
40624;BMP280;26325;48.594;11.650;2023-07-31T13:10:43;96274.00;;;32.14
40624;BMP280;26325;48.594;11.650;2023-07-31T13:13:10;96264.00;;;32.72
40624;BMP280;26325;48.594;11.650;2023-07-31T13:15:35;96272.06;;;32.32
40624;BMP280;26325;48.594;11.650;2023-07-31T13:18:03;96270.16;;;32.18
40624;BMP280;26325;48.594;11.650;2023-07-31T13:20:29;96259.84;;;32.31
40624;BMP280;26325;48.594;11.650;2023-07-31T13:22:55;96250.16;;;31.27
40624;BMP280;26325;48.594;11.650;2023-07-31T13:25:20;96267.84;;;30.79
40624;BMP280;26325;48.594;11.650;2023-07-31T13:27:48;96259.81;;;30.23
40624;BMP280;26325;48.594;11.650;2023-07-31T13:30:14;96240.75;;;31.88
40624;BMP280;26325;48.594;11.650;2023-07-31T13:32:39;96253.69;;;32.71
40624;BMP280;26325;48.594;11.650;2023-07-31T13:35:07;96238.50;;;32.07
40624;BMP280;26325;48.594;11.650;2023-07-31T13:37:32;96236.97;;;32.16
40624;BMP280;26325;48.594;11.650;2023-07-31T13:39:58;96207.03;;;33.69
40624;BMP280;26325;48.594;11.650;2023-07-31T13:42:23;96218.06;;;33.75
40624;BMP280;26325;48.594;11.650;2023-07-31T13:44:49;96234.44;;;34.40
40624;BMP280;26325;48.594;11.650;2023-07-31T13:47:15;96206.19;;;34.26
40624;BMP280;26325;48.594;11.650;2023-07-31T13:49:42;96224.88;;;35.08
40624;BMP280;26325;48.594;11.650;2023-07-31T13:52:08;96230.22;;;35.66
40624;BMP280;26325;48.594;11.650;2023-07-31T13:54:34;96217.16;;;34.45
40624;BMP280;26325;48.594;11.650;2023-07-31T13:57:02;96224.13;;;33.89
40624;BMP280;26325;48.594;11.650;2023-07-31T13:59:28;96223.28;;;33.42
40624;BMP280;26325;48.594;11.650;2023-07-31T14:01:53;96213.22;;;32.76
40624;BMP280;26325;48.594;11.650;2023-07-31T14:04:19;96227.41;;;31.74
40624;BMP280;26325;48.594;11.650;2023-07-31T14:06:45;96217.16;;;32.00